Time;durP1;ratioP1;P1;durP2;ratioP2;P2;SDS_P1;SDS_P2;PMS_P1;PMS_P2;Temp;Humidity;BMP_temperature;BMP_pressure;BME280_temperature;BME280_humidity;BME280_pressure;Samples;Min_cycle;Max_cycle;Signal;HPM_P1;HPM_P2
2021/10/27 00:01:16;;;;;;;35.97;18.73;;;;;;;-0.03;100.00;101393.83;1788967;79;21007;-68
2021/10/27 00:03:43;;;;;;;37.23;19.00;;;;;;;-0.05;100.00;101395.22;1786677;79;21002;-67
2021/10/27 00:06:10;;;;;;;41.43;20.47;;;;;;;-0.05;100.00;101399.69;1761177;79;21007;-65
2021/10/27 00:08:36;;;;;;;42.07;19.83;;;;;;;-0.06;100.00;101400.13;1786582;79;21014;-68
2021/10/27 00:11:04;;;;;;;45.93;22.00;;;;;;;-0.05;100.00;101395.70;1813714;79;21517;-67
2021/10/27 00:13:31;;;;;;;44.43;21.23;;;;;;;-0.07;100.00;101392.22;1813675;79;20987;-67
2021/10/27 00:15:58;;;;;;;41.60;22.67;;;;;;;-0.07;100.00;101387.79;1786862;79;21030;-66
2021/10/27 00:18:26;;;;;;;44.37;21.50;;;;;;;-0.08;100.00;101382.53;1813878;79;20979;-66
2021/10/27 00:20:53;;;;;;;43.30;23.50;;;;;;;-0.10;100.00;101383.08;1813869;79;21520;-67
2021/10/27 00:23:19;;;;;;;42.73;22.87;;;;;;;-0.13;100.00;101389.37;1813698;79;21003;-67
2021/10/27 00:25:47;;;;;;;42.43;23.53;;;;;;;-0.15;100.00;101384.60;1786765;79;20999;-67
2021/10/27 00:28:14;;;;;;;48.23;24.73;;;;;;;-0.16;100.00;101375.36;1813782;79;21030;-67
2021/10/27 00:30:41;;;;;;;43.20;24.67;;;;;;;-0.20;100.00;101371.50;1761088;79;21038;-66
2021/10/27 00:33:08;;;;;;;50.53;23.80;;;;;;;-0.23;100.00;101362.80;1813931;79;21070;-67
2021/10/27 00:35:35;;;;;;;45.53;23.43;;;;;;;-0.24;100.00;101370.41;1813772;79;21023;-66
2021/10/27 00:38:02;;;;;;;48.70;23.07;;;;;;;-0.27;100.00;101367.40;1788979;79;20983;-67
2021/10/27 00:40:30;;;;;;;48.40;22.93;;;;;;;-0.28;100.00;101368.34;1813578;79;21044;-67
2021/10/27 00:42:57;;;;;;;47.60;22.47;;;;;;;-0.31;100.00;101369.80;1813887;79;20994;-68
2021/10/27 00:45:24;;;;;;;45.17;21.57;;;;;;;-0.32;100.00;101368.09;1816709;79;21002;-67
2021/10/27 00:47:51;;;;;;;44.23;21.53;;;;;;;-0.33;100.00;101373.00;1794226;79;20939;-67
2021/10/27 00:50:18;;;;;;;43.93;21.67;;;;;;;-0.35;100.00;101369.55;1766197;79;21062;-66
2021/10/27 00:52:46;;;;;;;45.17;20.97;;;;;;;-0.38;100.00;101375.00;1791574;79;21034;-66
2021/10/27 00:55:13;;;;;;;45.60;21.67;;;;;;;-0.40;100.00;101370.22;1816968;79;21507;-66
2021/10/27 00:57:41;;;;;;;39.83;20.13;;;;;;;-0.41;100.00;101369.81;1791356;79;21463;-67
2021/10/27 01:00:09;;;;;;;42.27;20.03;;;;;;;-0.42;100.00;101362.79;1781508;79;21046;-67
2021/10/27 01:02:36;;;;;;;39.90;20.13;;;;;;;-0.45;100.00;101365.58;1781475;79;21018;-67
2021/10/27 01:05:04;;;;;;;40.97;20.30;;;;;;;-0.49;100.00;101361.34;1808509;79;21012;-67
2021/10/27 01:07:31;;;;;;;41.87;20.17;;;;;;;-0.51;100.00;101356.09;1808396;79;21038;-67
2021/10/27 01:10:00;;;;;;;41.63;20.10;;;;;;;-0.54;100.00;101353.55;1808194;79;21496;-67
2021/10/27 01:12:27;;;;;;;42.87;19.97;;;;;;;-0.56;100.00;101346.13;1808438;79;21035;-66
2021/10/27 01:14:54;;;;;;;47.60;21.27;;;;;;;-0.56;100.00;101351.91;1781577;79;21050;-66
2021/10/27 01:17:21;;;;;;;43.87;19.97;;;;;;;-0.59;100.00;101344.92;1781501;79;20979;-67
2021/10/27 01:19:55;;;;;;;43.27;20.23;;;;;;;-0.60;100.00;101346.72;1781526;79;20971;-67
2021/10/27 01:22:27;;;;;;;48.27;21.63;;;;;;;-0.62;100.00;101340.62;1718596;83;20987;-68
2021/10/27 01:24:54;;;;;;;42.90;20.93;;;;;;;-0.62;100.00;101336.63;1728306;81;21094;-67
2021/10/27 01:27:23;;;;;;;49.40;23.03;;;;;;;-0.63;100.00;101334.89;1703695;83;21006;-66
2021/10/27 01:29:50;;;;;;;51.33;21.70;;;;;;;-0.61;100.00;101330.84;1728032;83;21129;-66
2021/10/27 01:32:28;;;;;;;47.60;21.47;;;;;;;-0.61;100.00;101340.14;1704309;83;21046;-67
2021/10/27 01:34:55;;;;;;;42.47;19.73;;;;;;;-0.62;100.00;101332.65;1703814;83;21520;-67
2021/10/27 01:37:22;;;;;;;45.07;20.30;;;;;;;-0.62;100.00;101331.77;1728208;83;21502;-67
2021/10/27 01:39:49;;;;;;;45.40;19.93;;;;;;;-0.64;100.00;101337.61;1728341;83;21558;-67
2021/10/27 01:42:16;;;;;;;44.00;19.23;;;;;;;-0.64;100.00;101334.52;1728147;83;20998;-67
2021/10/27 01:44:43;;;;;;;41.20;18.77;;;;;;;-0.64;100.00;101337.61;1716802;83;21074;-66
2021/10/27 01:47:10;;;;;;;41.07;19.27;;;;;;;-0.64;100.00;101335.84;1711577;84;20995;-66
2021/10/27 01:49:38;;;;;;;41.33;18.77;;;;;;;-0.66;100.00;101332.36;1711067;83;21126;-67
2021/10/27 01:52:05;;;;;;;43.97;20.30;;;;;;;-0.67;100.00;101335.97;1717459;83;21035;-66
2021/10/27 01:54:32;;;;;;;43.83;18.37;;;;;;;-0.68;100.00;101334.70;1717234;83;21113;-66
2021/10/27 01:57:00;;;;;;;42.73;19.00;;;;;;;-0.69;100.00;101332.97;1713022;84;21519;-67
2021/10/27 01:59:27;;;;;;;41.97;19.07;;;;;;;-0.70;100.00;101332.59;1729041;83;21589;-67
2021/10/27 02:01:55;;;;;;;43.73;18.57;;;;;;;-0.70;100.00;101324.62;1733698;83;21527;-66
2021/10/27 02:04:23;;;;;;;41.17;18.27;;;;;;;-0.72;100.00;101322.02;1730862;83;21090;-67
2021/10/27 02:06:50;;;;;;;37.40;17.57;;;;;;;-0.73;100.00;101313.64;1730760;83;21085;-67
2021/10/27 02:09:19;;;;;;;38.70;17.53;;;;;;;-0.72;100.00;101318.04;1730636;83;21053;-66
2021/10/27 02:11:49;;;;;;;37.63;17.10;;;;;;;-0.73;100.00;101315.45;1730808;83;21046;-67
2021/10/27 02:14:16;;;;;;;40.30;18.73;;;;;;;-0.74;100.00;101309.28;1730721;82;21046;-67
2021/10/27 02:16:43;;;;;;;36.97;18.57;;;;;;;-0.75;100.00;101314.19;1733292;83;21034;-66
2021/10/27 02:19:11;;;;;;;35.40;17.70;;;;;;;-0.77;100.00;101312.91;1766919;80;21027;-67
2021/10/27 02:21:39;;;;;;;33.83;17.23;;;;;;;-0.78;100.00;101314.31;1797261;80;21531;-67
2021/10/27 02:24:06;;;;;;;33.00;16.37;;;;;;;-0.79;100.00;101314.78;1769002;80;21030;-65
2021/10/27 02:26:33;;;;;;;31.47;15.53;;;;;;;-0.81;100.00;101310.00;1797355;80;21031;-67
2021/10/27 02:29:00;;;;;;;30.20;14.43;;;;;;;-0.83;100.00;101314.53;1768999;80;21055;-65
2021/10/27 02:31:27;;;;;;;33.13;13.73;;;;;;;-0.82;100.00;101320.22;1769075;80;21046;-67
2021/10/27 02:33:54;;;;;;;30.47;13.73;;;;;;;-0.81;100.00;101315.80;1768634;80;21058;-66
2021/10/27 02:36:21;;;;;;;28.37;13.20;;;;;;;-0.81;100.00;101318.45;1797523;80;21059;-66
2021/10/27 02:38:48;;;;;;;26.77;12.03;;;;;;;-0.82;100.00;101316.23;1797299;80;21555;-68
2021/10/27 02:41:15;;;;;;;27.87;12.00;;;;;;;-0.82;100.00;101312.25;1768831;80;21566;-67
2021/10/27 02:43:42;;;;;;;26.10;11.63;;;;;;;-0.81;100.00;101317.12;1801259;79;21041;-68
2021/10/27 02:46:10;;;;;;;24.70;10.53;;;;;;;-0.84;100.00;101314.11;1784159;79;21030;-67
2021/10/27 02:48:37;;;;;;;23.80;10.40;;;;;;;-0.85;100.00;101311.08;1810924;79;20975;-67
2021/10/27 02:51:04;;;;;;;29.20;10.83;;;;;;;-0.86;100.00;101314.66;1816423;79;20986;-67
2021/10/27 02:53:31;;;;;;;29.23;10.53;;;;;;;-0.86;100.00;101312.47;1819502;79;21077;-67
2021/10/27 02:55:59;;;;;;;26.87;10.50;;;;;;;-0.87;100.00;101313.39;1819471;79;20994;-67
2021/10/27 02:58:26;;;;;;;27.23;11.37;;;;;;;-0.88;100.00;101312.53;1819322;78;21113;-67
2021/10/27 03:00:53;;;;;;;32.70;12.57;;;;;;;-0.87;100.00;101306.75;1819471;79;21518;-67
2021/10/27 03:03:20;;;;;;;26.53;10.40;;;;;;;-0.89;100.00;101302.83;1791955;79;20998;-66
2021/10/27 03:05:48;;;;;;;25.63;10.33;;;;;;;-0.89;100.00;101301.97;1819293;79;21010;-68
2021/10/27 03:08:15;;;;;;;26.93;10.47;;;;;;;-0.90;100.00;101302.45;1794307;79;21002;-66
2021/10/27 03:10:42;;;;;;;28.90;10.57;;;;;;;-0.89;100.00;101304.63;1792107;79;20957;-67
2021/10/27 03:13:09;;;;;;;29.27;11.60;;;;;;;-0.89;100.00;101301.50;1819428;79;21500;-67
2021/10/27 03:15:36;;;;;;;26.20;11.03;;;;;;;-0.89;100.00;101299.31;1792141;79;21011;-68
2021/10/27 03:18:05;;;;;;;33.30;12.10;;;;;;;-0.89;100.00;101296.66;1819078;79;21518;-67
2021/10/27 03:20:32;;;;;;;28.07;11.37;;;;;;;-0.88;100.00;101293.95;1819065;79;21022;-67
2021/10/27 03:23:01;;;;;;;30.33;12.23;;;;;;;-0.89;100.00;101292.68;1819483;79;21529;-67
2021/10/27 03:25:28;;;;;;;26.20;11.63;;;;;;;-0.90;100.00;101287.84;1819369;79;21534;-68
2021/10/27 03:27:55;;;;;;;33.60;13.50;;;;;;;-0.90;100.00;101296.25;1791927;79;21053;-67
2021/10/27 03:30:23;;;;;;;25.27;12.53;;;;;;;-0.90;100.00;101297.14;1819139;79;20998;-66
2021/10/27 03:32:51;;;;;;;30.83;12.10;;;;;;;-0.90;100.00;101304.22;1794244;79;21042;-67
2021/10/27 03:35:18;;;;;;;44.90;22.37;;;;;;;-0.92;100.00;101297.67;1794450;79;21042;-68
2021/10/27 03:37:45;;;;;;;41.27;21.13;;;;;;;-0.93;100.00;101290.63;1791953;79;21003;-67
2021/10/27 03:40:13;;;;;;;31.27;14.53;;;;;;;-0.96;100.00;101290.75;1819431;79;21014;-67
2021/10/27 03:42:40;;;;;;;30.07;13.73;;;;;;;-0.96;100.00;101292.08;1794247;79;21010;-67
2021/10/27 03:45:09;;;;;;;27.53;11.60;;;;;;;-0.96;100.00;101292.08;1809998;79;21026;-67
2021/10/27 03:47:36;;;;;;;27.33;11.80;;;;;;;-0.96;100.00;101288.09;1783781;79;21010;-67
2021/10/27 03:50:06;;;;;;;27.73;11.03;;;;;;;-0.94;100.00;101285.38;1776929;80;21024;-68
2021/10/27 03:52:33;;;;;;;27.60;11.20;;;;;;;-0.94;100.00;101287.55;1755140;80;21040;-66
2021/10/27 03:55:00;;;;;;;25.63;10.17;;;;;;;-0.95;100.00;101285.84;1785610;80;21028;-66
2021/10/27 03:57:27;;;;;;;25.73;9.90;;;;;;;-0.95;100.00;101287.17;1755176;80;21020;-68
2021/10/27 03:59:56;;;;;;;24.77;10.50;;;;;;;-0.97;100.00;101282.41;1791844;80;21055;-67
2021/10/27 04:02:23;;;;;;;24.37;10.27;;;;;;;-0.95;100.00;101293.81;1794375;80;21496;-68
2021/10/27 04:04:50;;;;;;;27.10;10.10;;;;;;;-0.93;100.00;101289.77;1767930;80;21024;-66
2021/10/27 04:07:17;;;;;;;20.60;10.00;;;;;;;-0.93;100.00;101287.97;1794485;79;21012;-68
2021/10/27 04:09:45;;;;;;;26.77;10.07;;;;;;;-0.90;100.00;101293.59;1794004;80;21075;-67
2021/10/27 04:12:12;;;;;;;27.90;9.63;;;;;;;-0.89;100.00;101296.66;1767652;80;21059;-66
2021/10/27 04:14:41;;;;;;;26.97;10.90;;;;;;;-0.88;100.00;101297.07;1794200;79;21067;-67
2021/10/27 04:17:07;;;;;;;29.20;10.10;;;;;;;-0.85;100.00;101307.09;1768228;80;21008;-67
2021/10/27 04:19:35;;;;;;;25.03;10.40;;;;;;;-0.81;100.00;101302.04;1767649;80;21055;-67
2021/10/27 04:22:03;;;;;;;21.93;9.80;;;;;;;-0.74;100.00;101303.97;1767850;80;21000;-68
2021/10/27 04:24:31;;;;;;;20.03;9.07;;;;;;;-0.71;100.00;101305.61;1794383;80;21016;-66
2021/10/27 04:26:58;;;;;;;25.33;9.73;;;;;;;-0.68;100.00;101307.67;1794439;80;21004;-69
2021/10/27 04:29:25;;;;;;;29.70;12.40;;;;;;;-0.66;100.00;101309.78;1794576;80;20980;-67
2021/10/27 04:31:52;;;;;;;80.83;34.43;;;;;;;-0.64;100.00;101300.42;1794322;80;21043;-66
2021/10/27 04:34:19;;;;;;;105.40;56.23;;;;;;;-0.62;100.00;101308.73;1794395;80;21004;-68
2021/10/27 04:36:47;;;;;;;99.97;53.10;;;;;;;-0.61;100.00;101308.27;1794133;80;21044;-67
2021/10/27 04:39:14;;;;;;;67.83;38.47;;;;;;;-0.61;100.00;101299.81;1768111;80;21063;-66
2021/10/27 04:41:41;;;;;;;51.77;29.57;;;;;;;-0.59;100.00;101299.75;1768104;80;21024;-68
2021/10/27 04:44:08;;;;;;;38.70;21.73;;;;;;;-0.56;100.00;101304.09;1765265;81;20987;-67
2021/10/27 04:46:35;;;;;;;31.70;17.13;;;;;;;-0.55;100.00;101305.80;1768867;81;21605;-67
2021/10/27 04:49:02;;;;;;;38.03;17.23;;;;;;;-0.55;100.00;101301.81;1743352;81;21559;-69
2021/10/27 04:51:29;;;;;;;30.43;16.43;;;;;;;-0.52;100.00;101307.84;1790034;79;21036;-67
2021/10/27 04:53:56;;;;;;;29.53;15.30;;;;;;;-0.51;100.00;101310.91;1772109;80;21028;-67
2021/10/27 04:56:23;;;;;;;41.40;20.47;;;;;;;-0.49;100.00;101309.05;1796277;80;21043;-67
2021/10/27 04:58:50;;;;;;;42.20;23.60;;;;;;;-0.46;100.00;101312.02;1788665;80;21581;-67
2021/10/27 05:01:17;;;;;;;43.80;23.37;;;;;;;-0.44;100.00;101308.85;1741882;82;20974;-67
2021/10/27 05:03:45;;;;;;;38.87;18.77;;;;;;;-0.41;100.00;101311.34;1756806;82;21041;-67
2021/10/27 05:06:12;;;;;;;36.30;18.53;;;;;;;-0.38;100.00;101304.57;1756401;82;21026;-66
2021/10/27 05:08:39;;;;;;;32.63;16.07;;;;;;;-0.33;100.00;101311.02;1741938;82;21037;-67
2021/10/27 05:11:07;;;;;;;30.67;14.47;;;;;;;-0.27;100.00;101310.72;1756665;82;21034;-68
2021/10/27 05:13:34;;;;;;;30.20;13.97;;;;;;;-0.20;100.00;101314.83;1756787;82;21029;-68
2021/10/27 05:16:01;;;;;;;32.17;13.60;;;;;;;-0.15;100.00;101307.50;1742175;82;21073;-66
2021/10/27 05:18:29;;;;;;;31.87;11.40;;;;;;;-0.07;100.00;101313.78;1756695;82;21029;-67
2021/10/27 05:20:56;;;;;;;27.03;11.33;;;;;;;0.01;100.00;101316.95;1741841;82;21512;-68
2021/10/27 05:23:23;;;;;;;28.97;12.33;;;;;;;0.10;100.00;101319.65;1756668;82;21049;-68
2021/10/27 05:25:50;;;;;;;23.50;13.33;;;;;;;0.18;100.00;101312.18;1741670;82;21072;-68
2021/10/27 05:28:17;;;;;;;25.67;11.77;;;;;;;0.27;100.00;101314.39;1741905;82;21494;-69
2021/10/27 05:30:47;;;;;;;25.37;11.90;;;;;;;0.36;100.00;101323.25;1756330;81;21101;-67
2021/10/27 05:33:14;;;;;;;24.00;11.47;;;;;;;0.45;100.00;101317.95;1756588;82;21060;-67
2021/10/27 05:35:42;;;;;;;24.53;11.53;;;;;;;0.54;100.00;101321.97;1756654;82;21045;-68
2021/10/27 05:38:09;;;;;;;22.53;11.60;;;;;;;0.61;100.00;101315.41;1756627;82;21606;-68
2021/10/27 05:40:36;;;;;;;25.37;11.80;;;;;;;0.69;100.00;101312.35;1741974;82;21053;-67
2021/10/27 05:43:09;;;;;;;26.60;11.23;;;;;;;0.78;100.00;101309.70;1732387;82;21498;-69
2021/10/27 05:45:38;;;;;;;30.40;12.67;;;;;;;0.87;100.00;101310.59;1760121;81;20956;-67
2021/10/27 05:48:07;;;;;;;32.50;14.10;;;;;;;0.97;100.00;101318.48;1762961;81;21012;-67
2021/10/27 05:55:55;;;;;;;33.87;15.87;;;;;;;1.28;100.00;101325.77;1607753;88;21162;-67
2021/10/27 05:58:22;;;;;;;38.73;19.33;;;;;;;1.39;100.00;101328.35;1584558;90;21147;-66
2021/10/27 06:00:49;;;;;;;36.87;18.73;;;;;;;1.48;100.00;101326.05;1616392;88;21062;-68
2021/10/27 06:03:16;;;;;;;36.27;18.03;;;;;;;1.59;100.00;101321.48;1599546;88;21630;-67
2021/10/27 06:05:43;;;;;;;42.47;19.00;;;;;;;1.71;100.00;101323.48;1606524;88;21102;-66
2021/10/27 06:08:10;;;;;;;38.93;17.73;;;;;;;1.79;100.00;101312.42;1608659;87;21653;-67
2021/10/27 06:10:37;;;;;;;38.23;18.23;;;;;;;1.93;100.00;101316.13;1602714;89;21137;-67
2021/10/27 06:13:07;;;;;;;32.27;15.07;;;;;;;2.05;100.00;101326.13;1606321;89;21094;-67
2021/10/27 06:15:36;;;;;;;32.37;14.67;;;;;;;2.16;100.00;101328.19;1604568;88;21082;-71
2021/10/27 06:18:03;;;;;;;28.97;13.03;;;;;;;2.26;100.00;101322.25;1586219;89;21084;-67
2021/10/27 06:20:31;;;;;;;28.53;12.53;;;;;;;2.37;100.00;101322.98;1589240;89;21510;-66
2021/10/27 06:22:58;;;;;;;22.27;11.10;;;;;;;2.45;100.00;101319.41;1595702;89;21027;-72
2021/10/27 06:25:27;;;;;;;25.67;11.20;;;;;;;2.57;100.00;101323.69;1603462;87;22056;-70
2021/10/27 06:30:42;;;;;;;24.77;12.23;;;;;;;2.75;100.00;101301.72;1516876;95;21182;-69
2021/10/27 06:33:06;;;;;;;39.13;12.73;;;;;;;2.83;100.00;101303.00;1498220;95;21134;-68
2021/10/27 06:35:32;;;;;;;27.97;11.40;;;;;;;2.95;100.00;101300.05;1544831;93;21123;-68
2021/10/27 06:48:40;;;;;;;28.60;15.90;;;;;;;4.07;100.00;101292.76;1526888;87;21141;-65
2021/10/27 06:51:08;;;;;;;28.97;13.93;;;;;;;4.27;100.00;101290.16;1718269;83;21962;-68
2021/10/27 06:53:35;;;;;;;29.07;13.63;;;;;;;4.51;100.00;101291.20;1717308;83;21214;-68
2021/10/27 06:56:08;;;;;;;31.37;13.80;;;;;;;4.77;100.00;101288.62;1717365;83;21126;-68
2021/10/27 06:58:41;;;;;;;27.97;13.63;;;;;;;4.92;100.00;101286.25;1690885;83;21518;-71
2021/10/27 07:01:02;;;;;;;32.73;15.20;;;;;;;5.06;100.00;101284.44;1697080;82;21109;-68
2021/10/27 07:17:08;;;;;;;48.17;16.53;;;;;;;6.01;100.00;101241.52;1647606;86;21070;-69
2021/10/27 07:19:35;;;;;;;31.87;17.07;;;;;;;6.16;100.00;101242.70;1646837;86;21050;-67
2021/10/27 07:22:02;;;;;;;31.93;16.17;;;;;;;6.38;100.00;101240.65;1612924;88;21059;-68
2021/10/27 07:24:31;;;;;;;31.07;15.90;;;;;;;6.56;100.00;101239.25;1594016;89;21064;-68
2021/10/27 07:27:03;;;;;;;31.17;15.30;;;;;;;6.74;100.00;101235.65;1639472;85;21054;-68
2021/10/27 07:29:30;;;;;;;31.70;14.60;;;;;;;6.84;100.00;101232.63;1647569;86;21125;-68
2021/10/27 07:31:57;;;;;;;27.83;14.53;;;;;;;7.03;100.00;101224.51;1652324;86;21068;-68
2021/10/27 07:34:32;;;;;;;34.83;17.67;;;;;;;7.30;100.00;101219.29;1676365;85;21090;-68
2021/10/27 07:42:25;;;;;;;42.27;22.83;;;;;;;7.77;100.00;101213.27;1691369;84;21030;-67
2021/10/27 07:44:52;;;;;;;49.53;24.63;;;;;;;7.90;100.00;101212.65;1661549;85;21351;-67
2021/10/27 07:47:19;;;;;;;39.93;18.53;;;;;;;7.92;100.00;101216.56;1689160;84;22226;-68
2021/10/27 07:49:47;;;;;;;38.30;17.47;;;;;;;8.05;100.00;101209.67;1660145;84;21037;-66
2021/10/27 07:52:14;;;;;;;36.87;17.70;;;;;;;8.30;100.00;101211.19;1690887;84;21088;-67
2021/10/27 07:54:42;;;;;;;30.93;16.77;;;;;;;8.43;100.00;101201.61;1693008;84;21527;-69
2021/10/27 07:57:10;;;;;;;32.60;16.27;;;;;;;8.52;100.00;101202.21;1691498;84;21070;-70
2021/10/27 07:59:37;;;;;;;29.50;15.53;;;;;;;8.57;100.00;101201.34;1660478;85;21085;-69
2021/10/27 08:02:06;;;;;;;32.43;15.07;;;;;;;8.58;100.00;101193.59;1701827;82;21104;-71
2021/10/27 08:04:35;;;;;;;25.93;13.50;;;;;;;8.60;100.00;101188.07;1706043;82;21066;-66
2021/10/27 08:07:03;;;;;;;31.63;15.33;;;;;;;8.54;100.00;101182.22;1722067;82;21005;-69
2021/10/27 08:09:30;;;;;;;31.10;14.27;;;;;;;8.66;100.00;101184.88;1719292;83;21506;-70
2021/10/27 08:11:57;;;;;;;25.07;12.60;;;;;;;8.88;100.00;101186.57;1720197;83;21011;-70
2021/10/27 08:14:26;;;;;;;28.05;13.65;;;;;;;9.10;100.00;101185.08;1729403;82;21008;-65
2021/10/27 08:16:54;;;;;;;26.93;12.17;;;;;;;9.11;100.00;101175.14;1686391;83;21071;-65
2021/10/27 08:19:21;;;;;;;24.33;10.70;;;;;;;9.09;100.00;101171.72;1708651;83;21068;-66
2021/10/27 08:21:48;;;;;;;20.88;9.68;;;;;;;9.24;100.00;101174.91;1707650;82;21026;-71
2021/10/27 08:24:23;;;;;;;23.73;10.38;;;;;;;9.38;100.00;101175.89;1701830;82;22282;-68
2021/10/27 08:26:53;;;;;;;20.17;10.50;;;;;;;9.65;100.00;101169.02;1707590;82;21018;-69
2021/10/27 08:29:24;;;;;;;20.57;9.10;;;;;;;9.80;100.00;101162.25;1712344;82;21092;-69
2021/10/27 08:31:56;;;;;;;23.85;8.20;;;;;;;9.92;100.00;101160.80;1720508;83;21554;-69
2021/10/27 08:34:32;;;;;;;15.48;7.30;;;;;;;10.03;100.00;101150.70;1718010;83;21009;-69
2021/10/27 08:36:48;;;;;;;18.32;7.85;;;;;;;10.01;100.00;101145.09;1693544;83;21018;-68
2021/10/27 08:39:16;;;;;;;21.00;9.15;;;;;;;9.92;100.00;101142.73;1739471;82;21549;-70
2021/10/27 08:41:44;;;;;;;17.75;8.45;;;;;;;9.98;100.00;101134.56;1714996;82;21501;-68
2021/10/27 08:44:12;;;;;;;14.53;6.72;;;;;;;10.03;100.00;101133.14;1737979;82;21085;-71
2021/10/27 08:46:41;;;;;;;12.85;6.67;;;;;;;10.29;100.00;101133.95;1723467;82;21041;-69
2021/10/27 08:49:08;;;;;;;14.23;6.83;;;;;;;10.30;100.00;101127.52;1725590;80;21543;-69
2021/10/27 08:51:36;;;;;;;13.38;6.90;;;;;;;10.13;100.00;101127.75;1735295;82;21088;-69
2021/10/27 08:54:08;;;;;;;13.15;6.58;;;;;;;10.18;100.00;101127.31;1739262;82;21013;-68
2021/10/27 08:56:39;;;;;;;15.78;7.03;;;;;;;10.27;100.00;101126.48;1700243;82;22300;-68
2021/10/27 08:59:11;;;;;;;18.95;6.78;;;;;;;10.30;100.00;101120.77;1742433;82;21024;-68
2021/10/27 09:04:44;;;;;;;50.15;21.75;;;;;;;10.09;100.00;101122.25;1772863;80;20963;-70
2021/10/27 09:15:40;;;;;;;17.67;7.10;;;;;;;11.09;100.00;101103.41;1779137;80;21089;-69
2021/10/27 09:34:58;;;;;;;16.62;6.20;;;;;;;11.51;100.00;101092.10;1777597;80;20988;-69
2021/10/27 09:37:50;;;;;;;16.70;6.83;;;;;;;11.37;100.00;101086.69;1742008;80;20992;-70
2021/10/27 09:42:50;;;;;;;10.43;5.80;;;;;;;11.44;100.00;101075.23;1751549;81;21038;-68
2021/10/27 10:04:58;;;;;;;21.42;8.10;;;;;;;11.85;100.00;101054.87;1565123;90;21210;-68
2021/10/27 10:07:25;;;;;;;10.55;5.00;;;;;;;12.12;100.00;101050.39;1565170;90;21291;-65
2021/10/27 10:09:53;;;;;;;13.72;6.70;;;;;;;12.44;100.00;101043.01;1585643;90;21024;-75
2021/10/27 10:12:20;;;;;;;19.07;8.05;;;;;;;12.50;100.00;101032.02;1564360;90;21118;-69
2021/10/27 10:14:50;;;;;;;19.35;7.08;;;;;;;12.24;100.00;101029.31;1585723;90;21096;-70
2021/10/27 10:17:18;;;;;;;20.35;9.00;;;;;;;12.06;100.00;101032.05;1578940;90;21042;-69
2021/10/27 10:19:45;;;;;;;23.73;8.23;;;;;;;12.06;100.00;101030.70;1565369;90;21631;-69
2021/10/27 10:22:36;;;;;;;19.55;7.00;;;;;;;12.13;100.00;101022.28;1565678;90;21147;-70
2021/10/27 10:25:25;;;;;;;10.08;5.28;;;;;;;12.15;100.00;101011.62;1581747;90;21067;-69
2021/10/27 10:27:54;;;;;;;12.03;4.97;;;;;;;11.89;100.00;101011.53;1584663;90;21063;-69
2021/10/27 10:30:43;;;;;;;9.73;5.00;;;;;;;11.66;100.00;101007.60;1580737;90;21102;-67
2021/10/27 10:33:12;;;;;;;10.88;5.05;;;;;;;11.56;100.00;101003.11;1560568;90;21062;-70
2021/10/27 10:35:52;;;;;;;11.43;5.50;;;;;;;11.61;100.00;100999.08;1565886;90;21067;-70
2021/10/27 11:24:37;;;;;;;11.93;5.00;;;;;;;12.23;100.00;100964.72;1806416;79;21087;-71
2021/10/27 11:27:24;;;;;;;16.15;6.40;;;;;;;12.28;99.68;100956.96;1807434;79;21505;-67
2021/10/27 11:38:18;;;;;;;15.45;6.40;;;;;;;12.46;100.00;100951.47;1670509;84;21042;-69
2021/10/27 11:40:48;;;;;;;14.83;7.05;;;;;;;12.41;100.00;100962.46;1671648;84;21554;-70
2021/10/27 11:48:27;;;;;;;15.05;7.20;;;;;;;12.48;100.00;100944.53;1694219;84;21503;-67
2021/10/27 11:50:48;;;;;;;12.35;6.45;;;;;;;12.62;96.21;100937.13;1689567;83;21061;-69
2021/10/27 11:53:34;;;;;;;23.90;7.55;;;;;;;12.66;94.70;100944.44;1694969;84;21035;-68
2021/10/27 11:56:22;;;;;;;12.53;6.00;;;;;;;12.62;94.43;100935.78;1698463;84;21487;-68
2021/10/27 11:58:51;;;;;;;12.85;6.20;;;;;;;12.70;95.19;100937.70;1698479;84;21546;-68
2021/10/27 12:04:10;;;;;;;21.57;11.48;;;;;;;12.60;91.17;100932.90;1605170;87;21077;-69
2021/10/27 12:06:41;;;;;;;9.88;5.30;;;;;;;12.72;89.47;100924.81;1604623;89;21173;-69
2021/10/27 12:18:07;;;;;;;9.73;4.50;;;;;;;12.79;78.62;100916.88;1605005;89;22248;-69
2021/10/27 12:20:41;;;;;;;10.70;4.78;;;;;;;12.95;80.33;100909.30;1605863;89;21586;-68
2021/10/27 12:23:21;;;;;;;8.70;4.72;;;;;;;13.22;82.68;100902.20;1606071;89;21101;-69
2021/10/27 12:25:53;;;;;;;11.30;4.80;;;;;;;13.57;82.71;100904.31;1604357;89;21015;-68
2021/10/27 12:28:28;;;;;;;11.57;5.20;;;;;;;13.97;79.05;100910.76;1606215;89;21014;-69
2021/10/27 12:30:55;;;;;;;17.62;8.73;;;;;;;14.28;68.57;100901.84;1586854;90;22115;-67
2021/10/27 12:33:43;;;;;;;15.28;7.05;;;;;;;14.41;65.02;100900.80;1583759;90;21505;-68
2021/10/27 12:36:29;;;;;;;18.98;10.40;;;;;;;14.42;60.45;100897.03;1588042;89;21584;-68
2021/10/27 12:39:10;;;;;;;;;;;;;;;14.22;61.16;100897.95;1519318;93;21167;-68
2021/10/27 12:41:37;;;;;;;;;;;;;;;14.33;61.87;100898.09;1489531;96;20134;-68
2021/10/27 12:44:20;;;;;;;16.87;4.72;;;;;;;14.67;62.10;100890.69;1505426;95;20194;-68
2021/10/27 12:46:48;;;;;;;9.75;4.08;;;;;;;14.96;60.34;100890.00;1455130;99;21131;-66
2021/10/27 12:49:20;;;;;;;7.78;3.95;;;;;;;15.07;56.90;100884.17;1437598;99;21148;-69
2021/10/27 12:51:48;;;;;;;9.93;4.30;;;;;;;15.11;53.53;100884.13;1472151;97;21127;-68
2021/10/27 12:54:15;;;;;;;9.98;4.47;;;;;;;14.86;53.47;100892.13;1475193;97;21288;-70
2021/10/27 12:56:43;;;;;;;8.23;3.75;;;;;;;15.03;54.22;100884.70;1475211;96;21151;-68
2021/10/27 12:59:12;;;;;;;9.25;4.45;;;;;;;15.22;51.55;100880.14;1474532;97;21166;-68
2021/10/27 13:01:51;;;;;;;18.70;4.75;;;;;;;15.12;50.35;100873.59;1536813;90;21123;-67
2021/10/27 13:04:24;;;;;;;9.43;4.08;;;;;;;15.16;49.85;100873.55;1545661;93;21643;-68
2021/10/27 13:12:23;;;;;;;10.98;4.47;;;;;;;15.32;47.53;100873.11;1547813;93;21639;-68
2021/10/27 13:14:47;;;;;;;15.15;4.40;;;;;;;15.16;47.61;100870.83;1545534;93;21404;-69
2021/10/27 13:20:17;;;;;;;8.95;4.35;;;;;;;14.60;48.06;100876.41;1528626;93;22330;-69
2021/10/27 13:22:55;;;;;;;13.93;4.55;;;;;;;14.36;49.52;100875.11;1528744;93;21098;-69
2021/10/27 13:30:55;;;;;;;10.00;4.87;;;;;;;14.59;52.25;100873.37;1543519;92;21107;-68
2021/10/27 13:33:23;;;;;;;15.60;5.75;;;;;;;14.56;50.80;100868.76;1563160;92;21583;-68
2021/10/27 13:35:50;;;;;;;11.80;5.20;;;;;;;14.20;51.06;100871.44;1563081;92;21090;-68
2021/10/27 13:38:19;;;;;;;15.53;6.05;;;;;;;13.88;52.34;100873.70;1543241;92;21083;-68
2021/10/27 13:40:47;;;;;;;16.48;5.10;;;;;;;13.69;53.66;100864.06;1562851;84;21070;-68
2021/10/27 13:48:16;;;;;;;12.60;5.00;;;;;;;12.69;59.42;100916.47;1713899;84;21003;-69
2021/10/27 13:59:17;;;;;;;58.92;18.00;;;;;;;11.38;80.21;100873.12;1732898;83;21065;-68
2021/10/27 14:07:19;;;;;;;32.30;11.35;;;;;;;10.70;94.89;100879.02;1685793;85;21069;-67
2021/10/27 14:09:47;;;;;;;26.33;9.98;;;;;;;10.55;97.69;100877.34;1683546;85;21048;-67
2021/10/27 14:15:00;;;;;;;25.80;8.73;;;;;;;10.24;100.00;100880.28;1686801;85;21564;-66
2021/10/27 14:20:22;;;;;;;30.12;12.33;;;;;;;9.98;100.00;100877.88;1687035;85;21092;-68
2021/10/27 14:23:09;;;;;;;32.63;12.60;;;;;;;9.85;100.00;100875.51;1660461;85;21607;-69
2021/10/27 14:39:35;;;;;;;70.40;25.50;;;;;;;9.04;100.00;100879.39;1718824;83;21016;-67
2021/10/27 15:20:50;;;;;;;32.73;15.67;;;;;;;7.14;100.00;100883.42;1811997;79;21566;-68
2021/10/27 15:26:04;;;;;;;32.40;15.17;;;;;;;6.98;100.00;100892.75;1701437;83;21529;-69
2021/10/27 15:36:08;;;;;;;39.23;22.30;;;;;;;6.74;100.00;100898.80;1601165;88;21045;-68